KROS

Rush City Regional Airport

Rush City, Minnesota, USA
METAR KROS 191815Z AUTO 05004KT 10SM BKN006 OVC037 13/12 A3005 RMK AO2 T01280117
Observed Flight Rules
Sep-19 @ 18:15 UTC (32 minutes ago) Instrument Flight Rules
Wind Visibility Clouds
50° at 4 knots 10 miles
  • Broken at 600' AGL
  • Overcast at 3,700' AGL
Temperatures Readings
Current 13°C / 55°F
Dewpoint 12°C / 54°F
Humidity 94%
Altimeter 30.05" Hg
Pressure 1018 hPa
Elevation 281
METAR KROS 191815Z AUTO 05004KT 10SM BKN006 OVC037 13/12 A3005 RMK AO2 T01280117
Observed Flight Rules
Sep-19 @ 18:15 UTC
(32 minutes ago)
IFR
Wind Visibility
50° at 4 knots 10 miles
Clouds
  • Broken at 600' AGL
  • Overcast at 3,700' AGL
Temperature Dewpoint
13°C / 55°F 12°C / 54°F
Humidity Altimeter Pressure
94% 30.05" Hg 1018 hPa